sensor_id;sensor_type;location;lat;lon;timestamp;temperature;humidity
22469;DHT22;11401;50.792;4.352;2022-12-18T00:01:23;9.10;50.40
22469;DHT22;11401;50.792;4.352;2022-12-18T00:03:51;9.00;49.90
22469;DHT22;11401;50.792;4.352;2022-12-18T00:06:21;9.00;49.90
22469;DHT22;11401;50.792;4.352;2022-12-18T00:08:48;9.10;49.90
22469;DHT22;11401;50.792;4.352;2022-12-18T00:11:20;9.10;49.90
22469;DHT22;11401;50.792;4.352;2022-12-18T00:13:48;9.10;49.90
22469;DHT22;11401;50.792;4.352;2022-12-18T00:16:17;9.20;49.90
22469;DHT22;11401;50.792;4.352;2022-12-18T00:18:49;9.20;49.70
22469;DHT22;11401;50.792;4.352;2022-12-18T00:21:18;9.20;49.30
22469;DHT22;11401;50.792;4.352;2022-12-18T00:23:46;9.20;49.60
22469;DHT22;11401;50.792;4.352;2022-12-18T00:26:19;9.10;49.40
22469;DHT22;11401;50.792;4.352;2022-12-18T00:28:49;9.10;49.40
22469;DHT22;11401;50.792;4.352;2022-12-18T00:31:19;9.10;49.40
22469;DHT22;11401;50.792;4.352;2022-12-18T00:33:46;9.00;49.50
22469;DHT22;11401;50.792;4.352;2022-12-18T00:36:21;8.90;49.80
22469;DHT22;11401;50.792;4.352;2022-12-18T00:42:02;8.70;49.90
22469;DHT22;11401;50.792;4.352;2022-12-18T00:44:47;8.70;50.20
22469;DHT22;11401;50.792;4.352;2022-12-18T00:47:14;8.60;50.30
22469;DHT22;11401;50.792;4.352;2022-12-18T00:49:41;8.60;50.40
22469;DHT22;11401;50.792;4.352;2022-12-18T00:52:08;8.60;50.50
22469;DHT22;11401;50.792;4.352;2022-12-18T00:54:35;8.60;50.60
22469;DHT22;11401;50.792;4.352;2022-12-18T00:57:02;8.60;50.40
22469;DHT22;11401;50.792;4.352;2022-12-18T00:59:29;8.50;50.00
22469;DHT22;11401;50.792;4.352;2022-12-18T01:01:56;8.50;50.70
22469;DHT22;11401;50.792;4.352;2022-12-18T01:04:23;8.60;50.40
22469;DHT22;11401;50.792;4.352;2022-12-18T01:06:50;8.60;50.20
22469;DHT22;11401;50.792;4.352;2022-12-18T01:09:17;8.70;50.00
22469;DHT22;11401;50.792;4.352;2022-12-18T01:11:44;8.60;49.40
22469;DHT22;11401;50.792;4.352;2022-12-18T01:14:11;8.60;49.60
22469;DHT22;11401;50.792;4.352;2022-12-18T01:16:38;8.60;49.40
22469;DHT22;11401;50.792;4.352;2022-12-18T01:19:05;8.70;49.50
22469;DHT22;11401;50.792;4.352;2022-12-18T01:21:32;8.70;49.40
22469;DHT22;11401;50.792;4.352;2022-12-18T01:24:03;8.70;49.10
22469;DHT22;11401;50.792;4.352;2022-12-18T01:26:30;8.70;49.20
22469;DHT22;11401;50.792;4.352;2022-12-18T01:28:57;8.70;49.60
22469;DHT22;11401;50.792;4.352;2022-12-18T01:31:30;8.60;49.40
22469;DHT22;11401;50.792;4.352;2022-12-18T01:34:00;8.60;49.60
22469;DHT22;11401;50.792;4.352;2022-12-18T01:36:31;8.60;49.60
22469;DHT22;11401;50.792;4.352;2022-12-18T01:39:11;8.60;49.60
22469;DHT22;11401;50.792;4.352;2022-12-18T01:41:41;8.50;49.60
22469;DHT22;11401;50.792;4.352;2022-12-18T01:47:33;8.40;49.80
22469;DHT22;11401;50.792;4.352;2022-12-18T01:50:17;8.40;49.90
22469;DHT22;11401;50.792;4.352;2022-12-18T01:53:00;8.30;49.90
22469;DHT22;11401;50.792;4.352;2022-12-18T01:55:32;8.40;49.90
22469;DHT22;11401;50.792;4.352;2022-12-18T01:58:02;8.30;49.60
22469;DHT22;11401;50.792;4.352;2022-12-18T02:00:29;8.30;50.20
22469;DHT22;11401;50.792;4.352;2022-12-18T02:02:56;8.20;50.30
22469;DHT22;11401;50.792;4.352;2022-12-18T02:08:20;8.10;50.10
22469;DHT22;11401;50.792;4.352;2022-12-18T02:16:55;8.00;50.60
22469;DHT22;11401;50.792;4.352;2022-12-18T02:19:47;8.00;50.50
22469;DHT22;11401;50.792;4.352;2022-12-18T02:28:04;8.00;50.50
22469;DHT22;11401;50.792;4.352;2022-12-18T02:30:33;7.90;50.50
22469;DHT22;11401;50.792;4.352;2022-12-18T02:33:04;7.90;50.50
22469;DHT22;11401;50.792;4.352;2022-12-18T02:35:33;7.80;50.60
22469;DHT22;11401;50.792;4.352;2022-12-18T02:38:03;7.80;51.40
22469;DHT22;11401;50.792;4.352;2022-12-18T02:40:34;7.90;51.20
22469;DHT22;11401;50.792;4.352;2022-12-18T02:43:12;8.00;50.70
22469;DHT22;11401;50.792;4.352;2022-12-18T02:45:53;8.10;50.50
22469;DHT22;11401;50.792;4.352;2022-12-18T02:48:33;8.00;50.00
22469;DHT22;11401;50.792;4.352;2022-12-18T02:51:17;8.00;49.70
22469;DHT22;11401;50.792;4.352;2022-12-18T02:54:02;8.00;50.10
22469;DHT22;11401;50.792;4.352;2022-12-18T02:56:43;8.00;49.80
22469;DHT22;11401;50.792;4.352;2022-12-18T02:59:19;8.00;49.90
22469;DHT22;11401;50.792;4.352;2022-12-18T03:02:25;8.10;50.40
22469;DHT22;11401;50.792;4.352;2022-12-18T03:08:03;8.20;50.10
22469;DHT22;11401;50.792;4.352;2022-12-18T03:10:39;8.20;49.50
22469;DHT22;11401;50.792;4.352;2022-12-18T03:13:13;8.20;49.70
22469;DHT22;11401;50.792;4.352;2022-12-18T03:15:53;8.20;49.60
22469;DHT22;11401;50.792;4.352;2022-12-18T03:18:33;8.20;49.50
22469;DHT22;11401;50.792;4.352;2022-12-18T03:21:05;8.20;49.30
22469;DHT22;11401;50.792;4.352;2022-12-18T03:23:48;8.20;49.50
22469;DHT22;11401;50.792;4.352;2022-12-18T03:26:19;8.20;49.60
22469;DHT22;11401;50.792;4.352;2022-12-18T03:31:32;8.20;49.70
22469;DHT22;11401;50.792;4.352;2022-12-18T03:34:02;8.20;49.40
22469;DHT22;11401;50.792;4.352;2022-12-18T03:36:40;8.10;49.80
22469;DHT22;11401;50.792;4.352;2022-12-18T03:39:07;8.10;49.60
22469;DHT22;11401;50.792;4.352;2022-12-18T03:41:44;8.10;49.60
22469;DHT22;11401;50.792;4.352;2022-12-18T03:52:34;8.00;49.30
22469;DHT22;11401;50.792;4.352;2022-12-18T03:55:03;8.00;49.60
22469;DHT22;11401;50.792;4.352;2022-12-18T03:57:33;8.00;49.30
22469;DHT22;11401;50.792;4.352;2022-12-18T04:00:08;8.00;49.50
22469;DHT22;11401;50.792;4.352;2022-12-18T04:02:55;8.00;49.70
22469;DHT22;11401;50.792;4.352;2022-12-18T04:05:32;8.00;49.50
22469;DHT22;11401;50.792;4.352;2022-12-18T04:08:01;8.00;49.90
22469;DHT22;11401;50.792;4.352;2022-12-18T04:10:31;8.00;49.40
22469;DHT22;11401;50.792;4.352;2022-12-18T04:13:00;8.00;49.30
22469;DHT22;11401;50.792;4.352;2022-12-18T04:15:27;8.00;49.60
22469;DHT22;11401;50.792;4.352;2022-12-18T04:17:58;8.00;49.50
22469;DHT22;11401;50.792;4.352;2022-12-18T04:20:31;8.00;49.60
22469;DHT22;11401;50.792;4.352;2022-12-18T04:22:58;8.10;49.50
22469;DHT22;11401;50.792;4.352;2022-12-18T04:25:26;8.00;49.30
22469;DHT22;11401;50.792;4.352;2022-12-18T04:28:03;8.00;49.50
22469;DHT22;11401;50.792;4.352;2022-12-18T04:30:32;8.00;49.30
22469;DHT22;11401;50.792;4.352;2022-12-18T04:32:59;8.00;49.60
22469;DHT22;11401;50.792;4.352;2022-12-18T04:35:28;8.00;49.60
22469;DHT22;11401;50.792;4.352;2022-12-18T04:37:55;8.00;49.40
22469;DHT22;11401;50.792;4.352;2022-12-18T04:40:22;8.00;49.30
22469;DHT22;11401;50.792;4.352;2022-12-18T04:42:49;8.00;49.40
22469;DHT22;11401;50.792;4.352;2022-12-18T04:45:16;8.00;49.40
22469;DHT22;11401;50.792;4.352;2022-12-18T04:47:44;8.10;49.50
22469;DHT22;11401;50.792;4.352;2022-12-18T04:50:11;8.10;49.30
22469;DHT22;11401;50.792;4.352;2022-12-18T04:52:38;8.00;49.00
22469;DHT22;11401;50.792;4.352;2022-12-18T04:55:05;7.90;49.00
22469;DHT22;11401;50.792;4.352;2022-12-18T04:57:32;7.90;49.00
22469;DHT22;11401;50.792;4.352;2022-12-18T04:59:59;7.90;49.30
22469;DHT22;11401;50.792;4.352;2022-12-18T05:02:27;7.90;49.40
22469;DHT22;11401;50.792;4.352;2022-12-18T05:04:54;7.80;49.30
22469;DHT22;11401;50.792;4.352;2022-12-18T05:07:21;7.80;49.50
22469;DHT22;11401;50.792;4.352;2022-12-18T05:09:48;7.80;49.50
22469;DHT22;11401;50.792;4.352;2022-12-18T05:12:15;7.90;49.40
22469;DHT22;11401;50.792;4.352;2022-12-18T05:14:42;8.00;49.40
22469;DHT22;11401;50.792;4.352;2022-12-18T05:17:09;7.80;49.00
22469;DHT22;11401;50.792;4.352;2022-12-18T05:19:37;7.80;49.30
22469;DHT22;11401;50.792;4.352;2022-12-18T05:22:04;7.80;49.50
22469;DHT22;11401;50.792;4.352;2022-12-18T05:24:34;7.80;49.40
22469;DHT22;11401;50.792;4.352;2022-12-18T05:27:01;7.80;49.30
22469;DHT22;11401;50.792;4.352;2022-12-18T05:29:28;7.70;49.40
22469;DHT22;11401;50.792;4.352;2022-12-18T05:31:55;7.80;49.40
22469;DHT22;11401;50.792;4.352;2022-12-18T05:34:22;7.80;49.70
22469;DHT22;11401;50.792;4.352;2022-12-18T05:36:49;7.80;49.20
22469;DHT22;11401;50.792;4.352;2022-12-18T05:39:16;7.90;49.60
22469;DHT22;11401;50.792;4.352;2022-12-18T05:41:42;7.90;49.40
22469;DHT22;11401;50.792;4.352;2022-12-18T05:44:09;7.90;49.30
22469;DHT22;11401;50.792;4.352;2022-12-18T05:46:36;8.00;49.40
22469;DHT22;11401;50.792;4.352;2022-12-18T05:49:03;8.00;49.10
22469;DHT22;11401;50.792;4.352;2022-12-18T05:51:30;8.10;49.10
22469;DHT22;11401;50.792;4.352;2022-12-18T05:53:58;8.10;49.00
22469;DHT22;11401;50.792;4.352;2022-12-18T05:56:24;8.10;48.80
22469;DHT22;11401;50.792;4.352;2022-12-18T05:58:53;8.00;49.10
22469;DHT22;11401;50.792;4.352;2022-12-18T06:01:25;8.00;49.20
22469;DHT22;11401;50.792;4.352;2022-12-18T06:03:53;7.90;48.80
22469;DHT22;11401;50.792;4.352;2022-12-18T06:06:22;7.90;49.30
22469;DHT22;11401;50.792;4.352;2022-12-18T06:08:51;7.80;48.90
22469;DHT22;11401;50.792;4.352;2022-12-18T06:11:23;7.70;49.10
22469;DHT22;11401;50.792;4.352;2022-12-18T06:13:56;7.60;49.50
22469;DHT22;11401;50.792;4.352;2022-12-18T06:16:26;7.50;49.80
22469;DHT22;11401;50.792;4.352;2022-12-18T06:18:58;7.60;49.90
22469;DHT22;11401;50.792;4.352;2022-12-18T06:21:27;7.50;49.80
22469;DHT22;11401;50.792;4.352;2022-12-18T06:23:54;7.60;49.70
22469;DHT22;11401;50.792;4.352;2022-12-18T06:26:21;7.60;49.50
22469;DHT22;11401;50.792;4.352;2022-12-18T06:28:54;7.50;49.20
22469;DHT22;11401;50.792;4.352;2022-12-18T06:31:21;7.60;49.40
22469;DHT22;11401;50.792;4.352;2022-12-18T06:33:48;7.60;49.60
22469;DHT22;11401;50.792;4.352;2022-12-18T06:36:15;7.70;49.90
22469;DHT22;11401;50.792;4.352;2022-12-18T06:38:43;7.90;49.90
22469;DHT22;11401;50.792;4.352;2022-12-18T06:41:13;8.00;49.00
22469;DHT22;11401;50.792;4.352;2022-12-18T06:43:41;8.10;49.40
22469;DHT22;11401;50.792;4.352;2022-12-18T06:46:09;8.20;48.40
22469;DHT22;11401;50.792;4.352;2022-12-18T06:48:36;8.20;48.60
22469;DHT22;11401;50.792;4.352;2022-12-18T06:51:03;8.10;48.30
22469;DHT22;11401;50.792;4.352;2022-12-18T06:53:31;8.10;48.40
22469;DHT22;11401;50.792;4.352;2022-12-18T06:56:03;8.10;48.50
22469;DHT22;11401;50.792;4.352;2022-12-18T06:58:35;8.20;48.50
22469;DHT22;11401;50.792;4.352;2022-12-18T07:01:05;8.20;48.20
22469;DHT22;11401;50.792;4.352;2022-12-18T07:03:32;8.20;48.00
22469;DHT22;11401;50.792;4.352;2022-12-18T07:05:59;8.20;48.30
22469;DHT22;11401;50.792;4.352;2022-12-18T07:08:26;8.30;47.80
22469;DHT22;11401;50.792;4.352;2022-12-18T07:10:55;8.20;48.00
22469;DHT22;11401;50.792;4.352;2022-12-18T07:13:22;8.20;47.80
22469;DHT22;11401;50.792;4.352;2022-12-18T07:15:49;8.20;48.00
22469;DHT22;11401;50.792;4.352;2022-12-18T07:18:17;8.30;48.20
22469;DHT22;11401;50.792;4.352;2022-12-18T07:20:45;8.40;48.30
22469;DHT22;11401;50.792;4.352;2022-12-18T07:23:13;8.50;48.70
22469;DHT22;11401;50.792;4.352;2022-12-18T07:25:40;8.50;47.20
22469;DHT22;11401;50.792;4.352;2022-12-18T07:28:08;8.40;47.20
22469;DHT22;11401;50.792;4.352;2022-12-18T07:30:42;8.40;47.60
22469;DHT22;11401;50.792;4.352;2022-12-18T07:33:09;8.40;48.10
22469;DHT22;11401;50.792;4.352;2022-12-18T07:35:36;8.40;47.60
22469;DHT22;11401;50.792;4.352;2022-12-18T07:38:03;8.40;48.20
22469;DHT22;11401;50.792;4.352;2022-12-18T07:40:30;8.30;47.30
22469;DHT22;11401;50.792;4.352;2022-12-18T07:42:57;8.30;47.70
22469;DHT22;11401;50.792;4.352;2022-12-18T07:45:24;8.40;47.90
22469;DHT22;11401;50.792;4.352;2022-12-18T07:47:51;8.40;47.40
22469;DHT22;11401;50.792;4.352;2022-12-18T07:50:18;8.40;46.60
22469;DHT22;11401;50.792;4.352;2022-12-18T07:52:45;8.40;47.50
22469;DHT22;11401;50.792;4.352;2022-12-18T07:55:12;8.30;47.40
22469;DHT22;11401;50.792;4.352;2022-12-18T07:57:39;8.40;48.20
22469;DHT22;11401;50.792;4.352;2022-12-18T08:00:26;8.40;47.80
22469;DHT22;11401;50.792;4.352;2022-12-18T08:02:53;8.40;47.60
22469;DHT22;11401;50.792;4.352;2022-12-18T08:05:20;8.30;47.50
22469;DHT22;11401;50.792;4.352;2022-12-18T08:07:47;8.40;47.70
22469;DHT22;11401;50.792;4.352;2022-12-18T08:10:14;8.40;47.50
22469;DHT22;11401;50.792;4.352;2022-12-18T08:12:41;8.30;47.30
22469;DHT22;11401;50.792;4.352;2022-12-18T08:15:08;8.40;47.90
22469;DHT22;11401;50.792;4.352;2022-12-18T08:17:35;8.30;47.60
22469;DHT22;11401;50.792;4.352;2022-12-18T08:20:03;8.10;47.30
22469;DHT22;11401;50.792;4.352;2022-12-18T08:22:33;8.00;47.40
22469;DHT22;11401;50.792;4.352;2022-12-18T08:25:00;7.90;48.40
22469;DHT22;11401;50.792;4.352;2022-12-18T08:27:27;7.90;48.50
22469;DHT22;11401;50.792;4.352;2022-12-18T08:29:57;7.80;48.00
22469;DHT22;11401;50.792;4.352;2022-12-18T08:32:25;8.00;48.20
22469;DHT22;11401;50.792;4.352;2022-12-18T08:34:52;8.00;48.20
22469;DHT22;11401;50.792;4.352;2022-12-18T08:37:19;8.10;48.60
22469;DHT22;11401;50.792;4.352;2022-12-18T08:39:46;8.00;48.40
22469;DHT22;11401;50.792;4.352;2022-12-18T08:42:13;7.50;47.80
22469;DHT22;11401;50.792;4.352;2022-12-18T08:44:59;7.30;48.30
22469;DHT22;11401;50.792;4.352;2022-12-18T08:47:26;7.20;49.70
22469;DHT22;11401;50.792;4.352;2022-12-18T08:49:52;7.10;49.70
22469;DHT22;11401;50.792;4.352;2022-12-18T08:52:19;7.00;49.30
22469;DHT22;11401;50.792;4.352;2022-12-18T08:54:46;7.10;50.50
22469;DHT22;11401;50.792;4.352;2022-12-18T08:57:13;7.00;49.70
22469;DHT22;11401;50.792;4.352;2022-12-18T08:59:40;7.00;49.90
22469;DHT22;11401;50.792;4.352;2022-12-18T09:02:10;7.10;50.30
22469;DHT22;11401;50.792;4.352;2022-12-18T09:04:37;7.10;49.80
22469;DHT22;11401;50.792;4.352;2022-12-18T09:07:06;7.30;50.50
22469;DHT22;11401;50.792;4.352;2022-12-18T09:09:33;7.30;49.90
22469;DHT22;11401;50.792;4.352;2022-12-18T09:12:00;7.30;49.60
22469;DHT22;11401;50.792;4.352;2022-12-18T09:14:27;7.30;49.80
22469;DHT22;11401;50.792;4.352;2022-12-18T09:16:54;7.30;49.70
22469;DHT22;11401;50.792;4.352;2022-12-18T09:19:21;7.40;49.50
22469;DHT22;11401;50.792;4.352;2022-12-18T09:21:48;7.40;49.60
22469;DHT22;11401;50.792;4.352;2022-12-18T09:24:16;7.30;49.00
22469;DHT22;11401;50.792;4.352;2022-12-18T09:26:43;7.60;51.10
22469;DHT22;11401;50.792;4.352;2022-12-18T09:29:14;8.20;50.20
22469;DHT22;11401;50.792;4.352;2022-12-18T09:31:43;8.30;49.30
22469;DHT22;11401;50.792;4.352;2022-12-18T09:34:10;8.60;47.60
22469;DHT22;11401;50.792;4.352;2022-12-18T09:36:37;8.90;48.30
22469;DHT22;11401;50.792;4.352;2022-12-18T09:39:04;8.90;47.70
22469;DHT22;11401;50.792;4.352;2022-12-18T09:41:55;9.00;47.00
22469;DHT22;11401;50.792;4.352;2022-12-18T09:44:25;9.10;48.30
22469;DHT22;11401;50.792;4.352;2022-12-18T09:47:10;9.20;47.60
22469;DHT22;11401;50.792;4.352;2022-12-18T09:49:44;9.30;47.40
22469;DHT22;11401;50.792;4.352;2022-12-18T09:52:22;9.10;46.90
22469;DHT22;11401;50.792;4.352;2022-12-18T09:55:05;9.30;47.80
22469;DHT22;11401;50.792;4.352;2022-12-18T09:57:35;9.60;48.60
22469;DHT22;11401;50.792;4.352;2022-12-18T10:00:16;9.80;47.50
22469;DHT22;11401;50.792;4.352;2022-12-18T10:02:45;9.80;45.90
22469;DHT22;11401;50.792;4.352;2022-12-18T10:05:20;9.80;46.60
22469;DHT22;11401;50.792;4.352;2022-12-18T10:10:35;9.90;46.10
22469;DHT22;11401;50.792;4.352;2022-12-18T10:13:18;9.90;46.60
22469;DHT22;11401;50.792;4.352;2022-12-18T10:16:00;10.00;46.50
22469;DHT22;11401;50.792;4.352;2022-12-18T10:18:55;10.00;46.60
22469;DHT22;11401;50.792;4.352;2022-12-18T10:21:57;10.00;46.50
22469;DHT22;11401;50.792;4.352;2022-12-18T10:27:09;10.20;47.30
22469;DHT22;11401;50.792;4.352;2022-12-18T10:29:38;10.30;46.60
22469;DHT22;11401;50.792;4.352;2022-12-18T10:32:05;10.50;47.10
22469;DHT22;11401;50.792;4.352;2022-12-18T10:34:31;10.40;46.20
22469;DHT22;11401;50.792;4.352;2022-12-18T10:37:01;10.10;46.00
22469;DHT22;11401;50.792;4.352;2022-12-18T10:39:31;9.90;46.00
22469;DHT22;11401;50.792;4.352;2022-12-18T10:42:11;9.60;47.90
22469;DHT22;11401;50.792;4.352;2022-12-18T10:44:42;9.80;48.10
22469;DHT22;11401;50.792;4.352;2022-12-18T10:47:14;9.80;47.20
22469;DHT22;11401;50.792;4.352;2022-12-18T10:49:50;9.90;48.50
22469;DHT22;11401;50.792;4.352;2022-12-18T10:52:20;10.10;47.80
22469;DHT22;11401;50.792;4.352;2022-12-18T10:54:54;10.30;48.40
22469;DHT22;11401;50.792;4.352;2022-12-18T10:57:39;10.30;46.50
22469;DHT22;11401;50.792;4.352;2022-12-18T11:00:26;10.50;46.90
22469;DHT22;11401;50.792;4.352;2022-12-18T11:02:55;10.50;46.60
22469;DHT22;11401;50.792;4.352;2022-12-18T11:05:31;10.50;47.10
22469;DHT22;11401;50.792;4.352;2022-12-18T11:07:59;10.40;46.20
22469;DHT22;11401;50.792;4.352;2022-12-18T11:10:46;10.50;46.40
22469;DHT22;11401;50.792;4.352;2022-12-18T11:13:19;10.40;46.40
22469;DHT22;11401;50.792;4.352;2022-12-18T11:15:48;10.50;46.00
22469;DHT22;11401;50.792;4.352;2022-12-18T11:20:50;10.40;45.30
22469;DHT22;11401;50.792;4.352;2022-12-18T11:23:24;10.40;46.20
22469;DHT22;11401;50.792;4.352;2022-12-18T11:26:03;10.50;46.60
22469;DHT22;11401;50.792;4.352;2022-12-18T11:28:37;10.40;46.60
22469;DHT22;11401;50.792;4.352;2022-12-18T11:31:19;10.50;45.40
22469;DHT22;11401;50.792;4.352;2022-12-18T11:36:58;10.60;46.20
22469;DHT22;11401;50.792;4.352;2022-12-18T11:39:42;10.60;46.10
22469;DHT22;11401;50.792;4.352;2022-12-18T11:42:45;10.50;45.90
22469;DHT22;11401;50.792;4.352;2022-12-18T11:48:05;10.60;46.00
22469;DHT22;11401;50.792;4.352;2022-12-18T11:53:04;10.80;45.00
22469;DHT22;11401;50.792;4.352;2022-12-18T12:04:06;10.90;45.80
22469;DHT22;11401;50.792;4.352;2022-12-18T12:09:22;11.10;45.80
22469;DHT22;11401;50.792;4.352;2022-12-18T12:17:45;11.10;44.70
22469;DHT22;11401;50.792;4.352;2022-12-18T12:23:02;11.20;44.00
22469;DHT22;11401;50.792;4.352;2022-12-18T12:34:36;11.00;45.20
22469;DHT22;11401;50.792;4.352;2022-12-18T12:37:32;11.20;45.50
22469;DHT22;11401;50.792;4.352;2022-12-18T12:40:02;11.40;44.50
22469;DHT22;11401;50.792;4.352;2022-12-18T12:42:55;10.90;42.90
22469;DHT22;11401;50.792;4.352;2022-12-18T12:45:50;10.90;45.20
22469;DHT22;11401;50.792;4.352;2022-12-18T12:48:42;11.00;44.70
22469;DHT22;11401;50.792;4.352;2022-12-18T12:51:15;10.90;44.60
22469;DHT22;11401;50.792;4.352;2022-12-18T12:53:43;11.20;45.40
22469;DHT22;11401;50.792;4.352;2022-12-18T12:56:13;11.20;44.70
22469;DHT22;11401;50.792;4.352;2022-12-18T13:01:38;11.40;45.40
22469;DHT22;11401;50.792;4.352;2022-12-18T13:04:23;11.60;44.10
22469;DHT22;11401;50.792;4.352;2022-12-18T13:07:37;11.50;44.00
22469;DHT22;11401;50.792;4.352;2022-12-18T13:10:14;11.50;43.40
22469;DHT22;11401;50.792;4.352;2022-12-18T13:13:10;11.60;44.60
22469;DHT22;11401;50.792;4.352;2022-12-18T13:15:47;11.60;42.80
22469;DHT22;11401;50.792;4.352;2022-12-18T13:18:23;11.50;43.30
22469;DHT22;11401;50.792;4.352;2022-12-18T13:23:31;11.50;44.20
22469;DHT22;11401;50.792;4.352;2022-12-18T13:26:28;11.60;43.50
22469;DHT22;11401;50.792;4.352;2022-12-18T13:28:55;11.40;42.90
22469;DHT22;11401;50.792;4.352;2022-12-18T13:34:24;11.50;43.50
22469;DHT22;11401;50.792;4.352;2022-12-18T13:39:44;11.70;43.20
22469;DHT22;11401;50.792;4.352;2022-12-18T13:45:00;11.50;44.00
22469;DHT22;11401;50.792;4.352;2022-12-18T13:47:35;11.60;43.40
22469;DHT22;11401;50.792;4.352;2022-12-18T13:50:30;11.60;43.90
22469;DHT22;11401;50.792;4.352;2022-12-18T13:53:03;11.50;43.40
22469;DHT22;11401;50.792;4.352;2022-12-18T13:55:32;11.60;43.60
22469;DHT22;11401;50.792;4.352;2022-12-18T13:58:06;11.60;44.30
22469;DHT22;11401;50.792;4.352;2022-12-18T14:00:33;11.60;43.80
22469;DHT22;11401;50.792;4.352;2022-12-18T14:03:00;11.50;43.40
22469;DHT22;11401;50.792;4.352;2022-12-18T14:05:31;11.50;43.50
22469;DHT22;11401;50.792;4.352;2022-12-18T14:08:08;11.50;44.00
22469;DHT22;11401;50.792;4.352;2022-12-18T14:10:41;11.50;43.90
22469;DHT22;11401;50.792;4.352;2022-12-18T14:13:30;11.60;43.90
22469;DHT22;11401;50.792;4.352;2022-12-18T14:16:01;11.60;43.40
22469;DHT22;11401;50.792;4.352;2022-12-18T14:21:02;11.50;44.50
22469;DHT22;11401;50.792;4.352;2022-12-18T14:23:39;11.40;43.80
22469;DHT22;11401;50.792;4.352;2022-12-18T14:26:27;11.30;44.60
22469;DHT22;11401;50.792;4.352;2022-12-18T14:28:58;11.40;44.20
22469;DHT22;11401;50.792;4.352;2022-12-18T14:31:30;11.40;44.20
22469;DHT22;11401;50.792;4.352;2022-12-18T14:33:57;11.30;43.70
22469;DHT22;11401;50.792;4.352;2022-12-18T14:36:28;11.30;43.60
22469;DHT22;11401;50.792;4.352;2022-12-18T14:38:57;11.40;44.30
22469;DHT22;11401;50.792;4.352;2022-12-18T14:41:25;11.40;45.00
22469;DHT22;11401;50.792;4.352;2022-12-18T14:43:53;11.30;44.30
22469;DHT22;11401;50.792;4.352;2022-12-18T14:46:35;11.20;43.90
22469;DHT22;11401;50.792;4.352;2022-12-18T14:51:52;11.40;44.00
22469;DHT22;11401;50.792;4.352;2022-12-18T14:54:20;11.30;43.90
22469;DHT22;11401;50.792;4.352;2022-12-18T14:56:49;11.20;44.20
22469;DHT22;11401;50.792;4.352;2022-12-18T14:59:21;11.10;44.50
22469;DHT22;11401;50.792;4.352;2022-12-18T15:09:38;11.30;44.40
22469;DHT22;11401;50.792;4.352;2022-12-18T15:12:22;11.30;43.90
22469;DHT22;11401;50.792;4.352;2022-12-18T15:14:51;11.20;44.50
22469;DHT22;11401;50.792;4.352;2022-12-18T15:17:22;11.00;43.70
22469;DHT22;11401;50.792;4.352;2022-12-18T15:19:58;11.10;44.80
22469;DHT22;11401;50.792;4.352;2022-12-18T15:22:30;11.10;44.70
22469;DHT22;11401;50.792;4.352;2022-12-18T15:25:00;11.10;43.20
22469;DHT22;11401;50.792;4.352;2022-12-18T15:27:34;11.10;45.50
22469;DHT22;11401;50.792;4.352;2022-12-18T15:30:23;11.20;44.20
22469;DHT22;11401;50.792;4.352;2022-12-18T15:32:52;11.00;44.50
22469;DHT22;11401;50.792;4.352;2022-12-18T15:35:24;11.10;45.50
22469;DHT22;11401;50.792;4.352;2022-12-18T15:37:52;11.30;43.80
22469;DHT22;11401;50.792;4.352;2022-12-18T15:40:23;11.10;43.20
22469;DHT22;11401;50.792;4.352;2022-12-18T15:42:53;10.90;44.10
22469;DHT22;11401;50.792;4.352;2022-12-18T15:45:39;10.90;45.30
22469;DHT22;11401;50.792;4.352;2022-12-18T15:48:38;10.90;44.60
22469;DHT22;11401;50.792;4.352;2022-12-18T15:51:15;10.60;43.60
22469;DHT22;11401;50.792;4.352;2022-12-18T15:53:42;10.40;45.40
22469;DHT22;11401;50.792;4.352;2022-12-18T15:56:11;10.20;45.30
22469;DHT22;11401;50.792;4.352;2022-12-18T15:58:57;10.10;46.10
22469;DHT22;11401;50.792;4.352;2022-12-18T16:01:27;9.90;45.70
22469;DHT22;11401;50.792;4.352;2022-12-18T16:03:55;9.90;46.30
22469;DHT22;11401;50.792;4.352;2022-12-18T16:06:23;9.80;46.00
22469;DHT22;11401;50.792;4.352;2022-12-18T16:08:50;9.80;47.10
22469;DHT22;11401;50.792;4.352;2022-12-18T16:11:21;9.80;47.50
22469;DHT22;11401;50.792;4.352;2022-12-18T16:14:19;10.00;47.30
22469;DHT22;11401;50.792;4.352;2022-12-18T16:16:47;10.20;48.10
22469;DHT22;11401;50.792;4.352;2022-12-18T16:19:15;10.30;46.80
22469;DHT22;11401;50.792;4.352;2022-12-18T16:21:43;10.00;48.20
22469;DHT22;11401;50.792;4.352;2022-12-18T16:24:32;10.10;48.80
22469;DHT22;11401;50.792;4.352;2022-12-18T16:27:00;10.20;48.10
22469;DHT22;11401;50.792;4.352;2022-12-18T16:29:28;10.30;47.20
22469;DHT22;11401;50.792;4.352;2022-12-18T16:32:00;10.20;47.80
22469;DHT22;11401;50.792;4.352;2022-12-18T16:34:32;10.40;48.00
22469;DHT22;11401;50.792;4.352;2022-12-18T16:37:04;10.10;47.40
22469;DHT22;11401;50.792;4.352;2022-12-18T16:39:33;10.40;48.90
22469;DHT22;11401;50.792;4.352;2022-12-18T16:42:13;10.60;48.50
22469;DHT22;11401;50.792;4.352;2022-12-18T16:44:43;10.70;48.50
22469;DHT22;11401;50.792;4.352;2022-12-18T16:47:10;10.50;48.20
22469;DHT22;11401;50.792;4.352;2022-12-18T16:49:41;10.60;48.80
22469;DHT22;11401;50.792;4.352;2022-12-18T16:52:09;10.70;47.60
22469;DHT22;11401;50.792;4.352;2022-12-18T16:54:36;10.60;47.90
22469;DHT22;11401;50.792;4.352;2022-12-18T16:57:03;10.60;47.50
22469;DHT22;11401;50.792;4.352;2022-12-18T16:59:31;10.80;48.40
22469;DHT22;11401;50.792;4.352;2022-12-18T17:01:58;10.90;48.10
22469;DHT22;11401;50.792;4.352;2022-12-18T17:04:25;11.00;47.50
22469;DHT22;11401;50.792;4.352;2022-12-18T17:06:52;11.00;48.20
22469;DHT22;11401;50.792;4.352;2022-12-18T17:09:20;11.20;49.80
22469;DHT22;11401;50.792;4.352;2022-12-18T17:11:50;11.00;47.30
22469;DHT22;11401;50.792;4.352;2022-12-18T17:14:19;11.10;48.10
22469;DHT22;11401;50.792;4.352;2022-12-18T17:16:47;11.20;48.10
22469;DHT22;11401;50.792;4.352;2022-12-18T17:19:34;11.30;49.20
22469;DHT22;11401;50.792;4.352;2022-12-18T17:22:01;11.20;48.70
22469;DHT22;11401;50.792;4.352;2022-12-18T17:24:30;11.20;48.30
22469;DHT22;11401;50.792;4.352;2022-12-18T17:27:01;11.40;49.90
22469;DHT22;11401;50.792;4.352;2022-12-18T17:29:28;11.60;49.20
22469;DHT22;11401;50.792;4.352;2022-12-18T17:31:56;11.50;47.10
22469;DHT22;11401;50.792;4.352;2022-12-18T17:34:25;11.40;47.10
22469;DHT22;11401;50.792;4.352;2022-12-18T17:36:52;11.30;48.00
22469;DHT22;11401;50.792;4.352;2022-12-18T17:39:20;11.10;47.50
22469;DHT22;11401;50.792;4.352;2022-12-18T17:41:48;11.10;47.80
22469;DHT22;11401;50.792;4.352;2022-12-18T17:44:15;11.10;47.50
22469;DHT22;11401;50.792;4.352;2022-12-18T17:46:43;11.10;48.10
22469;DHT22;11401;50.792;4.352;2022-12-18T17:49:11;11.20;47.60
22469;DHT22;11401;50.792;4.352;2022-12-18T17:51:38;11.10;48.10
22469;DHT22;11401;50.792;4.352;2022-12-18T17:54:05;11.30;48.80
22469;DHT22;11401;50.792;4.352;2022-12-18T17:56:32;11.20;46.20